DLH6CR EDDF-EDXW
Flight info
| Callsign | DLH6CR |
|---|---|
| Flight time | N/A |
| Altitude | 39000 |
| Route | MARUN6E/07C MARUN Y150 TOLGI/N0431F380 DCT ELSOB/N0428F370 Y348 OMWEG DCT BADOS DCT OLDIP |
| Aircraft | A319/M-SDE2E3FGIJ1LORWXYZ/HB1 |
Departure
| Time | N/A |
|---|---|
| Airport | Frankfurt Main Airport (EDDF) |
Arrival
| Time | 2026-05-01 08:01 |
|---|---|
| Airport | Westerland Sylt Airport (EDXW) |
| Time | Latitude | Longitude | Altitude | Speed | Heading |
|---|---|---|---|---|---|
| 2026-05-01 07:23 | 52.09297 | 9.53958 | 39448 ft | 415 kts | 0° |
| 2026-05-01 07:24 | 52.17931 | 9.54165 | 39447 ft | 415 kts | 0° |
| 2026-05-01 07:24 | 52.23706 | 9.54305 | 39445 ft | 415 kts | 0° |
| 2026-05-01 07:25 | 52.29477 | 9.54448 | 39443 ft | 415 kts | 0° |
| 2026-05-01 07:25 | 52.35252 | 9.54594 | 39440 ft | 415 kts | 0° |
| 2026-05-01 07:26 | 52.40994 | 9.54746 | 39441 ft | 415 kts | 1° |
| 2026-05-01 07:26 | 52.46785 | 9.54895 | 39429 ft | 417 kts | 0° |
| 2026-05-01 07:26 | 52.49723 | 9.54971 | 39191 ft | 425 kts | 1° |
| 2026-05-01 07:27 | 52.52664 | 9.55050 | 38928 ft | 423 kts | 1° |
| 2026-05-01 07:27 | 52.55613 | 9.55126 | 38639 ft | 421 kts | 0° |
| 2026-05-01 07:27 | 52.58543 | 9.55199 | 38412 ft | 419 kts | 0° |
| 2026-05-01 07:28 | 52.64317 | 9.55336 | 38440 ft | 419 kts | 1° |
| 2026-05-01 07:28 | 52.70153 | 9.55481 | 38443 ft | 420 kts | 1° |
| 2026-05-01 07:29 | 52.75996 | 9.55629 | 38450 ft | 420 kts | 1° |
| 2026-05-01 07:29 | 52.81835 | 9.55778 | 38447 ft | 420 kts | 1° |
| 2026-05-01 07:30 | 52.87673 | 9.55917 | 38450 ft | 420 kts | 1° |
| 2026-05-01 07:30 | 52.93488 | 9.56063 | 38447 ft | 421 kts | 1° |
| 2026-05-01 07:31 | 52.99344 | 9.56227 | 38442 ft | 421 kts | 1° |
| 2026-05-01 07:32 | 53.13942 | 9.56608 | 38442 ft | 421 kts | 1° |
| 2026-05-01 07:33 | 53.22731 | 9.56837 | 37704 ft | 417 kts | 1° |
| 2026-05-01 07:33 | 53.25616 | 9.56912 | 37354 ft | 414 kts | 1° |
| 2026-05-01 07:33 | 53.31299 | 9.57057 | 36672 ft | 408 kts | 1° |
| 2026-05-01 07:34 | 53.34125 | 9.57134 | 36338 ft | 405 kts | 1° |
| 2026-05-01 07:34 | 53.39738 | 9.57284 | 35681 ft | 401 kts | 1° |
| 2026-05-01 07:34 | 53.42521 | 9.57357 | 35359 ft | 399 kts | 1° |
| 2026-05-01 07:35 | 53.45254 | 9.57429 | 35058 ft | 397 kts | 1° |
| 2026-05-01 07:35 | 53.48005 | 9.57499 | 34744 ft | 394 kts | 1° |
| 2026-05-01 07:35 | 53.50740 | 9.57572 | 34429 ft | 392 kts | 1° |
| 2026-05-01 07:35 | 53.53461 | 9.57648 | 34069 ft | 390 kts | 1° |
| 2026-05-01 07:36 | 53.56170 | 9.57721 | 33714 ft | 388 kts | 1° |
| 2026-05-01 07:36 | 53.58864 | 9.57791 | 33361 ft | 386 kts | 1° |
| 2026-05-01 07:36 | 53.61546 | 9.57858 | 33015 ft | 384 kts | 1° |
| 2026-05-01 07:36 | 53.64228 | 9.57919 | 32675 ft | 391 kts | 0° |
| 2026-05-01 07:37 | 53.69650 | 9.56937 | 32001 ft | 396 kts | 353° |
| 2026-05-01 07:37 | 53.72376 | 9.56301 | 31670 ft | 394 kts | 353° |
| 2026-05-01 07:37 | 53.75090 | 9.55669 | 31341 ft | 393 kts | 353° |
| 2026-05-01 07:38 | 53.77794 | 9.55040 | 31010 ft | 391 kts | 353° |
| 2026-05-01 07:38 | 53.80485 | 9.54414 | 30695 ft | 390 kts | 353° |
| 2026-05-01 07:38 | 53.85805 | 9.53170 | 29982 ft | 386 kts | 353° |
| 2026-05-01 07:39 | 53.88458 | 9.52551 | 29614 ft | 385 kts | 353° |
| 2026-05-01 07:39 | 53.91112 | 9.51934 | 29263 ft | 383 kts | 353° |
| 2026-05-01 07:39 | 53.96360 | 9.50703 | 28539 ft | 379 kts | 353° |
| 2026-05-01 07:40 | 53.98953 | 9.49996 | 28172 ft | 377 kts | 347° |
| 2026-05-01 07:40 | 54.01440 | 9.48606 | 27831 ft | 374 kts | 337° |
| 2026-05-01 07:40 | 54.03736 | 9.46536 | 27485 ft | 373 kts | 331° |
| 2026-05-01 07:40 | 54.05971 | 9.44330 | 27148 ft | 371 kts | 331° |
| 2026-05-01 07:41 | 54.08168 | 9.42170 | 26821 ft | 369 kts | 331° |
| 2026-05-01 07:41 | 54.10391 | 9.39983 | 26490 ft | 368 kts | 331° |
| 2026-05-01 07:41 | 54.14793 | 9.35634 | 25843 ft | 365 kts | 331° |
| 2026-05-01 07:42 | 54.16994 | 9.33460 | 25534 ft | 363 kts | 331° |
| 2026-05-01 07:42 | 54.19164 | 9.31314 | 25158 ft | 359 kts | 331° |
| 2026-05-01 07:42 | 54.21316 | 9.29179 | 24694 ft | 357 kts | 331° |
| 2026-05-01 07:42 | 54.23462 | 9.27045 | 24224 ft | 356 kts | 331° |
| 2026-05-01 07:43 | 54.25603 | 9.24915 | 23708 ft | 356 kts | 331° |
| 2026-05-01 07:43 | 54.27705 | 9.22824 | 23240 ft | 353 kts | 331° |
| 2026-05-01 07:43 | 54.31915 | 9.18623 | 22334 ft | 348 kts | 330° |
| 2026-05-01 07:44 | 54.36065 | 9.14456 | 21449 ft | 345 kts | 328° |
| 2026-05-01 07:44 | 54.39614 | 9.08998 | 20586 ft | 343 kts | 314° |
| 2026-05-01 07:45 | 54.41297 | 9.06073 | 20147 ft | 343 kts | 315° |
| 2026-05-01 07:45 | 54.42975 | 9.03171 | 19719 ft | 342 kts | 315° |
| 2026-05-01 07:45 | 54.44629 | 9.00310 | 19295 ft | 342 kts | 314° |
| 2026-05-01 07:45 | 54.46299 | 8.97412 | 18873 ft | 342 kts | 314° |
| 2026-05-01 07:46 | 54.47973 | 8.94501 | 18408 ft | 342 kts | 314° |
| 2026-05-01 07:46 | 54.49638 | 8.91602 | 17979 ft | 340 kts | 314° |
| 2026-05-01 07:46 | 54.52950 | 8.85836 | 17152 ft | 337 kts | 314° |
| 2026-05-01 07:47 | 54.54596 | 8.82961 | 16744 ft | 336 kts | 314° |
| 2026-05-01 07:47 | 54.56235 | 8.80086 | 16340 ft | 336 kts | 314° |
| 2026-05-01 07:47 | 54.57845 | 8.77260 | 15941 ft | 335 kts | 314° |
| 2026-05-01 07:47 | 54.59477 | 8.74397 | 15548 ft | 334 kts | 314° |
| 2026-05-01 07:48 | 54.62331 | 8.68161 | 14758 ft | 331 kts | 294° |
| 2026-05-01 07:48 | 54.63269 | 8.64533 | 14365 ft | 331 kts | 292° |
| 2026-05-01 07:48 | 54.64202 | 8.60914 | 13935 ft | 331 kts | 292° |
| 2026-05-01 07:49 | 54.65144 | 8.57283 | 13527 ft | 329 kts | 292° |
| 2026-05-01 07:49 | 54.66995 | 8.50155 | 12714 ft | 326 kts | 292° |
| 2026-05-01 07:49 | 54.67916 | 8.46595 | 12315 ft | 324 kts | 292° |
| 2026-05-01 07:50 | 54.68829 | 8.43055 | 11899 ft | 322 kts | 292° |
| 2026-05-01 07:50 | 54.70635 | 8.36009 | 11058 ft | 319 kts | 292° |
| 2026-05-01 07:50 | 54.71533 | 8.32508 | 10641 ft | 318 kts | 292° |
| 2026-05-01 07:51 | 54.72465 | 8.29053 | 10262 ft | 315 kts | 298° |
| 2026-05-01 07:51 | 54.73748 | 8.26133 | 9990 ft | 306 kts | 314° |
| 2026-05-01 07:51 | 54.75427 | 8.23897 | 9386 ft | 305 kts | 330° |
| 2026-05-01 07:52 | 54.79276 | 8.21110 | 8448 ft | 293 kts | 338° |
| 2026-05-01 07:52 | 54.81149 | 8.19789 | 8000 ft | 287 kts | 337° |
| 2026-05-01 07:52 | 54.82985 | 8.18487 | 7561 ft | 282 kts | 337° |
| 2026-05-01 07:53 | 54.86531 | 8.15962 | 6702 ft | 273 kts | 336° |
| 2026-05-01 07:53 | 54.88239 | 8.14743 | 6248 ft | 257 kts | 336° |
| 2026-05-01 07:53 | 54.89865 | 8.13581 | 5651 ft | 251 kts | 336° |
| 2026-05-01 07:53 | 54.91465 | 8.12437 | 5096 ft | 243 kts | 337° |
| 2026-05-01 07:54 | 54.94433 | 8.10317 | 4919 ft | 229 kts | 336° |
| 2026-05-01 07:55 | 54.98926 | 8.09701 | 4530 ft | 215 kts | 32° |
| 2026-05-01 07:55 | 55.00820 | 8.13411 | 3822 ft | 201 kts | 57° |
| 2026-05-01 07:56 | 55.02054 | 8.19619 | 2846 ft | 176 kts | 113° |
| 2026-05-01 07:56 | 55.00510 | 8.22623 | 2315 ft | 168 kts | 148° |
| 2026-05-01 07:57 | 54.99577 | 8.23783 | 2058 ft | 157 kts | 148° |
| 2026-05-01 07:57 | 54.98012 | 8.25746 | 1617 ft | 126 kts | 148° |
| 2026-05-01 07:58 | 54.96634 | 8.27461 | 1254 ft | 120 kts | 149° |
| 2026-05-01 07:58 | 54.95292 | 8.29150 | 908 ft | 119 kts | 148° |
| 2026-05-01 07:59 | 54.93951 | 8.30800 | 593 ft | 117 kts | 149° |
| 2026-05-01 07:59 | 54.92633 | 8.32424 | 235 ft | 117 kts | 146° |
| 2026-05-01 08:00 | 54.90864 | 8.34616 | 36 ft | 51 kts | 144° |
| 2026-05-01 08:01 | 54.90456 | 8.34715 | 34 ft | 16 kts | 223° |
| 2026-05-01 08:01 | 54.90370 | 8.34578 | 35 ft | 18 kts | 221° |
| 2026-05-01 08:01 | 54.90287 | 8.34413 | 34 ft | 19 kts | 240° |
| 2026-05-01 08:02 | 54.90242 | 8.33933 | 31 ft | 21 kts | 279° |
| 2026-05-01 08:02 | 54.90266 | 8.33683 | 33 ft | 21 kts | 285° |
| 2026-05-01 08:03 | 54.90462 | 8.33294 | 34 ft | 22 kts | 336° |
| 2026-05-01 08:03 | 54.90615 | 8.33238 | 34 ft | 23 kts | 355° |
| 2026-05-01 08:03 | 54.90920 | 8.33136 | 35 ft | 17 kts | 328° |
| 2026-05-01 08:04 | 54.91117 | 8.33180 | 35 ft | 15 kts | 359° |
| 2026-05-01 08:04 | 54.91331 | 8.33239 | 29 ft | 14 kts | 23° |
| 2026-05-01 08:05 | 54.91385 | 8.33164 | 29 ft | 4 kts | 271° |
| 2026-05-01 08:05 | 54.91386 | 8.33126 | 29 ft | 1 kts | 272° |
| 2026-05-01 08:05 | 54.91386 | 8.33117 | 29 ft | 0 kts | 271° |